M/T Havva Ana — V7RE3 — position and weather

sailwx.info

Track history (hours):
 
Tides and Currents Weather Stations Pressure Air Temp Water Temp Dewpoint Dewpoint Depression Visibility Wind Speed Wind Dir Waves Ship Positions

M/T Havva Ana

Last reported at 2016-Jul-25 01:12 UTC. Time now 2016-Jul-28 20:21 UTC.
Position N 34°11' E 011°54'.

Length 124 m; draft 5.6 m.

Type: Tanker. MMSI: 538003488.

Date/timePositionNaut miles runAvg speedWind from/ knotsBaromVisibWave heightAir tempDewpointWater temp
2016-Jul-25 01:12N 34°11' E 011°54'0 0.0
2016-Jul-24 23:33N 34°11' E 011°54'0 0.0
2016-Jul-24 09:06N 34°12' E 011°54'0 0.0
2016-Jul-24 07:33N 34°12' E 011°54'0 0.0
2016-Jul-24 01:33N 34°12' E 011°54'0 0.0
2016-Jul-23 15:33N 34°12' E 011°54'0 0.0
2016-Jul-23 13:33N 34°12' E 011°54'0 0.0
2016-Jul-23 12:33N 34°12' E 011°54'0 0.0
2016-Jul-23 11:33N 34°12' E 011°54'0 0.0
2016-Jul-23 10:18N 34°12' E 011°54'0 0.0
2016-Jul-23 08:33N 34°12' E 011°54'0 0.0
2016-Jul-23 07:33N 34°12' E 011°54'0 0.0
2016-Jul-23 04:03N 34°12' E 011°54'0 0.0
2016-Jul-22 20:30N 34°12' E 011°54'0 0.0
2016-Jul-22 19:33N 34°12' E 011°54'0 0.0
2016-Jul-22 18:33N 34°12' E 011°54'0 0.0
2016-Jul-22 17:33N 34°12' E 011°54'0 0.0
2016-Jul-22 16:30N 34°12' E 011°54'0 0.0
2016-Jul-22 14:21N 34°12' E 011°54'0 0.0
2016-Jul-22 13:33N 34°12' E 011°54'0 0.1
2016-Jul-22 12:08N 34°11' E 011°54'3 5.7
2016-Jul-22 11:33N 34°13' E 011°57'1211.9
2016-Jul-22 10:33N 34°17' E 012°11'1211.8
2016-Jul-22 09:33N 34°21' E 012°24'1211.8
2016-Jul-22 08:33N 34°25' E 012°38'14411.6
2016-Jul-21 20:06N 35°48' E 015°01'611.7
2016-Jul-21 19:33N 35°54' E 014°59'8 7.5
2016-Jul-21 18:33N 36°00' E 014°53'0 0.0
2016-Jul-21 17:33N 36°00' E 014°53'0 0.0
2016-Jul-21 16:33N 36°00' E 014°53'0 0.0
2016-Jul-21 15:33N 36°00' E 014°53'0 0.0
2016-Jul-21 14:33N 36°00' E 014°53'0 0.0
2016-Jul-21 13:33N 36°00' E 014°53'0 0.0
2016-Jul-21 12:27N 36°00' E 014°53'0 0.0
2016-Jul-21 11:33N 36°00' E 014°53'0 0.0
2016-Jul-21 10:33N 36°00' E 014°53'0 0.0
2016-Jul-21 09:33N 36°00' E 014°53'0 0.0
2016-Jul-21 08:33N 36°00' E 014°53'0 0.0
2016-Jul-21 07:33N 36°00' E 014°53'0 0.0
2016-Jul-21 06:33N 36°00' E 014°53'0 0.0
2016-Jul-21 05:33N 35°60' E 014°53'0 0.0
2016-Jul-21 04:33N 35°60' E 014°53'0 0.0
2016-Jul-21 03:33N 35°60' E 014°53'0 0.0
2016-Jul-21 01:27N 36°00' E 014°53'0 0.0
2016-Jul-21 00:33N 36°00' E 014°53'0 0.0
2016-Jul-20 23:33N 36°00' E 014°53'0 0.0
2016-Jul-20 22:33N 36°00' E 014°53'0 0.1
2016-Jul-20 21:30N 36°00' E 014°53'0 0.0
2016-Jul-20 20:33N 36°00' E 014°53'0 0.0
2016-Jul-20 18:06N 36°00' E 014°53'0 0.1
2016-Jul-20 17:27N 36°00' E 014°53'0 0.0
2016-Jul-20 16:33N 36°00' E 014°53'0 0.0
2016-Jul-20 15:33N 36°00' E 014°53'0 0.0
2016-Jul-20 14:30N 36°00' E 014°53'0 0.0
2016-Jul-19 18:15N 36°00' E 014°53'0 0.0
2016-Jul-19 14:33N 35°60' E 014°53'0 0.0
2016-Jul-19 13:33N 36°00' E 014°53'0 0.0
2016-Jul-19 12:30N 36°00' E 014°53'0 0.0
2016-Jul-19 11:33N 35°60' E 014°53'0 0.0
2016-Jul-19 10:30N 35°60' E 014°53'0 0.0
2016-Jul-19 09:33N 35°60' E 014°53'0 0.0
2016-Jul-19 08:33N 35°60' E 014°53'0 0.0
2016-Jul-19 07:33N 35°60' E 014°53'0 0.0
2016-Jul-19 04:33N 36°00' E 014°53'0 0.0
2016-Jul-19 03:33N 36°00' E 014°53'0 0.0
2016-Jul-19 02:33N 36°00' E 014°53'0 0.0
2016-Jul-19 01:33N 36°00' E 014°53'0 0.0
2016-Jul-19 00:33N 36°00' E 014°53'0 0.0
2016-Jul-18 23:33N 36°00' E 014°53'0 0.0
2016-Jul-18 22:33N 36°00' E 014°53'0 0.0
2016-Jul-18 18:33N 36°00' E 014°53'0 0.0
2016-Jul-18 16:09N 36°00' E 014°53'0 0.0
2016-Jul-18 15:30N 36°00' E 014°53'0 0.0
2016-Jul-18 14:33N 36°00' E 014°53'0 0.0
2016-Jul-18 13:33N 35°60' E 014°53'0 0.0
2016-Jul-18 12:33N 35°60' E 014°53'0 0.0
2016-Jul-17 18:09N 36°00' E 014°53'0 0.0
2016-Jul-17 17:33N 36°00' E 014°53'0 0.0
2016-Jul-17 16:33N 36°00' E 014°53'0 0.0
2016-Jul-17 15:33N 36°00' E 014°53'0 0.0
2016-Jul-17 14:33N 36°00' E 014°53'0 0.0
2016-Jul-17 13:30N 36°00' E 014°53'  
Track history (hours):
 
Tides and Currents Weather Stations Pressure Air Temp Water Temp Dewpoint Dewpoint Depression Visibility Wind Speed Wind Dir Waves Ship Positions

M/T Havva Ana

Last reported at 2016-Jul-25 01:12 UTC. Time now 2016-Jul-28 20:21 UTC.
Position N 34°11' E 011°54'.

Length 124 m; draft 5.6 m.

Type: Tanker. MMSI: 538003488.

Date/timePositionNaut miles runAvg speedWind from/ knotsBaromVisibWave heightAir tempDewpointWater temp
2016-Jul-25 01:12N 34°11' E 011°54'0 0.0
2016-Jul-24 23:33N 34°11' E 011°54'0 0.0
2016-Jul-24 09:06N 34°12' E 011°54'0 0.0
2016-Jul-24 07:33N 34°12' E 011°54'0 0.0
2016-Jul-24 01:33N 34°12' E 011°54'0 0.0
2016-Jul-23 15:33N 34°12' E 011°54'0 0.0
2016-Jul-23 13:33N 34°12' E 011°54'0 0.0
2016-Jul-23 12:33N 34°12' E 011°54'0 0.0
2016-Jul-23 11:33N 34°12' E 011°54'0 0.0
2016-Jul-23 10:18N 34°12' E 011°54'0 0.0
2016-Jul-23 08:33N 34°12' E 011°54'0 0.0
2016-Jul-23 07:33N 34°12' E 011°54'0 0.0
2016-Jul-23 04:03N 34°12' E 011°54'0 0.0
2016-Jul-22 20:30N 34°12' E 011°54'0 0.0
2016-Jul-22 19:33N 34°12' E 011°54'0 0.0
2016-Jul-22 18:33N 34°12' E 011°54'0 0.0
2016-Jul-22 17:33N 34°12' E 011°54'0 0.0
2016-Jul-22 16:30N 34°12' E 011°54'0 0.0
2016-Jul-22 14:21N 34°12' E 011°54'0 0.0
2016-Jul-22 13:33N 34°12' E 011°54'0 0.1
2016-Jul-22 12:08N 34°11' E 011°54'3 5.7
2016-Jul-22 11:33N 34°13' E 011°57'1211.9
2016-Jul-22 10:33N 34°17' E 012°11'1211.8
2016-Jul-22 09:33N 34°21' E 012°24'1211.8
2016-Jul-22 08:33N 34°25' E 012°38'14411.6
2016-Jul-21 20:06N 35°48' E 015°01'611.7
2016-Jul-21 19:33N 35°54' E 014°59'8 7.5
2016-Jul-21 18:33N 36°00' E 014°53'0 0.0
2016-Jul-21 17:33N 36°00' E 014°53'0 0.0
2016-Jul-21 16:33N 36°00' E 014°53'0 0.0
2016-Jul-21 15:33N 36°00' E 014°53'0 0.0
2016-Jul-21 14:33N 36°00' E 014°53'0 0.0
2016-Jul-21 13:33N 36°00' E 014°53'0 0.0
2016-Jul-21 12:27N 36°00' E 014°53'0 0.0
2016-Jul-21 11:33N 36°00' E 014°53'0 0.0
2016-Jul-21 10:33N 36°00' E 014°53'0 0.0
2016-Jul-21 09:33N 36°00' E 014°53'0 0.0
2016-Jul-21 08:33N 36°00' E 014°53'0 0.0
2016-Jul-21 07:33N 36°00' E 014°53'0 0.0
2016-Jul-21 06:33N 36°00' E 014°53'0 0.0
2016-Jul-21 05:33N 35°60' E 014°53'0 0.0
2016-Jul-21 04:33N 35°60' E 014°53'0 0.0
2016-Jul-21 03:33N 35°60' E 014°53'0 0.0
2016-Jul-21 01:27N 36°00' E 014°53'0 0.0
2016-Jul-21 00:33N 36°00' E 014°53'0 0.0
2016-Jul-20 23:33N 36°00' E 014°53'0 0.0
2016-Jul-20 22:33N 36°00' E 014°53'0 0.1
2016-Jul-20 21:30N 36°00' E 014°53'0 0.0
2016-Jul-20 20:33N 36°00' E 014°53'0 0.0
2016-Jul-20 18:06N 36°00' E 014°53'0 0.1
2016-Jul-20 17:27N 36°00' E 014°53'0 0.0
2016-Jul-20 16:33N 36°00' E 014°53'0 0.0
2016-Jul-20 15:33N 36°00' E 014°53'0 0.0
2016-Jul-20 14:30N 36°00' E 014°53'0 0.0
2016-Jul-19 18:15N 36°00' E 014°53'0 0.0
2016-Jul-19 14:33N 35°60' E 014°53'0 0.0
2016-Jul-19 13:33N 36°00' E 014°53'0 0.0
2016-Jul-19 12:30N 36°00' E 014°53'0 0.0
2016-Jul-19 11:33N 35°60' E 014°53'0 0.0
2016-Jul-19 10:30N 35°60' E 014°53'0 0.0
2016-Jul-19 09:33N 35°60' E 014°53'0 0.0
2016-Jul-19 08:33N 35°60' E 014°53'0 0.0
2016-Jul-19 07:33N 35°60' E 014°53'0 0.0
2016-Jul-19 04:33N 36°00' E 014°53'0 0.0
2016-Jul-19 03:33N 36°00' E 014°53'0 0.0
2016-Jul-19 02:33N 36°00' E 014°53'0 0.0
2016-Jul-19 01:33N 36°00' E 014°53'0 0.0
2016-Jul-19 00:33N 36°00' E 014°53'0 0.0
2016-Jul-18 23:33N 36°00' E 014°53'0 0.0
2016-Jul-18 22:33N 36°00' E 014°53'0 0.0
2016-Jul-18 18:33N 36°00' E 014°53'0 0.0
2016-Jul-18 16:09N 36°00' E 014°53'0 0.0
2016-Jul-18 15:30N 36°00' E 014°53'0 0.0
2016-Jul-18 14:33N 36°00' E 014°53'0 0.0
2016-Jul-18 13:33N 35°60' E 014°53'0 0.0
2016-Jul-18 12:33N 35°60' E 014°53'0 0.0
2016-Jul-17 18:09N 36°00' E 014°53'0 0.0
2016-Jul-17 17:33N 36°00' E 014°53'0 0.0
2016-Jul-17 16:33N 36°00' E 014°53'0 0.0
2016-Jul-17 15:33N 36°00' E 014°53'0 0.0
2016-Jul-17 14:33N 36°00' E 014°53'0 0.0
2016-Jul-17 13:30N 36°00' E 014°53'  

Dump ship's entire track history